sensor_id;sensor_type;location;lat;lon;timestamp;pressure;altitude;pressure_sealevel;temperature;humidity
84308;BME280;74486;52.070;5.128;2024-03-23T00:53:28;101157.25;;;7.49;100.00
84308;BME280;74486;52.070;5.128;2024-03-23T00:55:53;101156.03;;;7.44;100.00
84308;BME280;74486;52.070;5.128;2024-03-23T00:58:19;101151.34;;;7.38;100.00
84308;BME280;74486;52.070;5.128;2024-03-23T01:00:44;101153.84;;;7.37;100.00
84308;BME280;74486;52.070;5.128;2024-03-23T01:03:10;101154.25;;;7.30;100.00
84308;BME280;74486;52.070;5.128;2024-03-23T01:05:35;101151.66;;;7.30;100.00
84308;BME280;74486;52.070;5.128;2024-03-23T01:08:00;101143.13;;;7.32;100.00
84308;BME280;74486;52.070;5.128;2024-03-23T01:10:27;101143.75;;;7.28;100.00
84308;BME280;74486;52.070;5.128;2024-03-23T01:12:53;101143.34;;;7.35;100.00
84308;BME280;74486;52.070;5.128;2024-03-23T01:15:18;101133.75;;;7.34;100.00
84308;BME280;74486;52.070;5.128;2024-03-23T01:17:44;101128.03;;;7.40;100.00
84308;BME280;74486;52.070;5.128;2024-03-23T01:20:09;101123.84;;;7.29;100.00
84308;BME280;74486;52.070;5.128;2024-03-23T01:22:35;101124.25;;;7.22;100.00
84308;BME280;74486;52.070;5.128;2024-03-23T01:25:00;101122.75;;;7.12;100.00
84308;BME280;74486;52.070;5.128;2024-03-23T01:27:27;101108.25;;;7.03;100.00
84308;BME280;74486;52.070;5.128;2024-03-23T01:29:52;101112.97;;;6.95;100.00
84308;BME280;74486;52.070;5.128;2024-03-23T01:32:18;101109.47;;;6.94;100.00
84308;BME280;74486;52.070;5.128;2024-03-23T01:34:44;101112.78;;;6.92;100.00
84308;BME280;74486;52.070;5.128;2024-03-23T01:37:09;101105.97;;;6.81;100.00
84308;BME280;74486;52.070;5.128;2024-03-23T01:39:34;101108.94;;;6.74;100.00
84308;BME280;74486;52.070;5.128;2024-03-23T01:42:00;101110.03;;;6.64;100.00
84308;BME280;74486;52.070;5.128;2024-03-23T01:44:26;101113.03;;;6.57;100.00
84308;BME280;74486;52.070;5.128;2024-03-23T01:46:52;101107.72;;;6.55;100.00
84308;BME280;74486;52.070;5.128;2024-03-23T01:49:18;101110.38;;;6.44;100.00
84308;BME280;74486;52.070;5.128;2024-03-23T01:51:44;101098.81;;;6.39;100.00
84308;BME280;74486;52.070;5.128;2024-03-23T01:54:10;101100.13;;;6.45;100.00
84308;BME280;74486;52.070;5.128;2024-03-23T01:56:36;101096.00;;;6.36;100.00
84308;BME280;74486;52.070;5.128;2024-03-23T01:59:01;101096.28;;;6.27;100.00
84308;BME280;74486;52.070;5.128;2024-03-23T02:01:28;101098.69;;;6.24;100.00
84308;BME280;74486;52.070;5.128;2024-03-23T02:03:54;101096.97;;;6.25;100.00
84308;BME280;74486;52.070;5.128;2024-03-23T02:06:19;101091.56;;;6.22;100.00
84308;BME280;74486;52.070;5.128;2024-03-23T02:08:45;101101.63;;;6.17;100.00
84308;BME280;74486;52.070;5.128;2024-03-23T02:11:10;101097.97;;;6.27;100.00
84308;BME280;74486;52.070;5.128;2024-03-23T02:13:36;101100.38;;;6.24;100.00
84308;BME280;74486;52.070;5.128;2024-03-23T02:16:02;101095.66;;;6.18;100.00
84308;BME280;74486;52.070;5.128;2024-03-23T02:18:28;101093.25;;;6.21;100.00
84308;BME280;74486;52.070;5.128;2024-03-23T02:20:54;101093.25;;;6.21;100.00
84308;BME280;74486;52.070;5.128;2024-03-23T02:23:20;101087.97;;;6.20;100.00
84308;BME280;74486;52.070;5.128;2024-03-23T02:25:46;101084.97;;;6.14;100.00
84308;BME280;74486;52.070;5.128;2024-03-23T02:28:11;101081.94;;;6.07;100.00
84308;BME280;74486;52.070;5.128;2024-03-23T02:30:37;101085.94;;;6.16;100.00
84308;BME280;74486;52.070;5.128;2024-03-23T02:33:03;101077.66;;;6.08;100.00
84308;BME280;74486;52.070;5.128;2024-03-23T02:35:28;101074.63;;;6.02;100.00
84308;BME280;74486;52.070;5.128;2024-03-23T02:37:54;101075.34;;;5.99;100.00
84308;BME280;74486;52.070;5.128;2024-03-23T02:40:20;101077.50;;;5.93;100.00
84308;BME280;74486;52.070;5.128;2024-03-23T02:42:46;101079.41;;;5.96;100.00
84308;BME280;74486;52.070;5.128;2024-03-23T02:45:11;101077.75;;;5.85;100.00
84308;BME280;74486;52.070;5.128;2024-03-23T02:47:37;101074.41;;;5.74;100.00
84308;BME280;74486;52.070;5.128;2024-03-23T02:50:03;101070.06;;;5.61;100.00
84308;BME280;74486;52.070;5.128;2024-03-23T02:52:28;101074.69;;;5.54;100.00
84308;BME280;74486;52.070;5.128;2024-03-23T02:54:54;101069.06;;;5.48;100.00
84308;BME280;74486;52.070;5.128;2024-03-23T02:57:21;101081.03;;;5.46;100.00
84308;BME280;74486;52.070;5.128;2024-03-23T02:59:47;101075.56;;;5.30;100.00
84308;BME280;74486;52.070;5.128;2024-03-23T03:02:13;101083.00;;;5.37;100.00
84308;BME280;74486;52.070;5.128;2024-03-23T03:04:40;101074.88;;;5.32;100.00
84308;BME280;74486;52.070;5.128;2024-03-23T03:07:06;101073.97;;;5.32;100.00
84308;BME280;74486;52.070;5.128;2024-03-23T03:09:31;101077.16;;;5.28;100.00
84308;BME280;74486;52.070;5.128;2024-03-23T03:11:57;101072.19;;;5.19;100.00
84308;BME280;74486;52.070;5.128;2024-03-23T03:14:23;101070.16;;;5.15;100.00
84308;BME280;74486;52.070;5.128;2024-03-23T03:16:49;101073.66;;;5.27;100.00
84308;BME280;74486;52.070;5.128;2024-03-23T03:19:14;101064.66;;;5.22;100.00
84308;BME280;74486;52.070;5.128;2024-03-23T03:21:40;101070.03;;;5.25;100.00
84308;BME280;74486;52.070;5.128;2024-03-23T03:24:06;101063.97;;;5.24;100.00
84308;BME280;74486;52.070;5.128;2024-03-23T03:26:32;101064.41;;;5.19;100.00
84308;BME280;74486;52.070;5.128;2024-03-23T03:28:57;101065.69;;;5.12;100.00
84308;BME280;74486;52.070;5.128;2024-03-23T03:31:24;101059.69;;;5.13;100.00
84308;BME280;74486;52.070;5.128;2024-03-23T03:33:50;101059.03;;;5.16;100.00
84308;BME280;74486;52.070;5.128;2024-03-23T03:36:15;101058.81;;;5.01;100.00
84308;BME280;74486;52.070;5.128;2024-03-23T03:38:41;101055.56;;;4.92;100.00
84308;BME280;74486;52.070;5.128;2024-03-23T03:41:06;101054.78;;;4.93;100.00
84308;BME280;74486;52.070;5.128;2024-03-23T03:43:32;101058.28;;;4.94;100.00
84308;BME280;74486;52.070;5.128;2024-03-23T03:45:59;101059.97;;;4.93;100.00
84308;BME280;74486;52.070;5.128;2024-03-23T03:48:27;101046.06;;;5.04;100.00
84308;BME280;74486;52.070;5.128;2024-03-23T03:50:52;101038.22;;;5.03;100.00
84308;BME280;74486;52.070;5.128;2024-03-23T03:53:18;101041.16;;;4.96;100.00
84308;BME280;74486;52.070;5.128;2024-03-23T03:55:43;101039.25;;;4.93;100.00
84308;BME280;74486;52.070;5.128;2024-03-23T03:58:08;101039.91;;;4.91;100.00
84308;BME280;74486;52.070;5.128;2024-03-23T04:00:34;101038.69;;;4.97;100.00
84308;BME280;74486;52.070;5.128;2024-03-23T04:02:59;101036.16;;;4.99;100.00
84308;BME280;74486;52.070;5.128;2024-03-23T04:05:26;101038.81;;;4.87;100.00
84308;BME280;74486;52.070;5.128;2024-03-23T04:07:52;101030.81;;;4.84;100.00
84308;BME280;74486;52.070;5.128;2024-03-23T04:10:17;101028.00;;;4.81;100.00
84308;BME280;74486;52.070;5.128;2024-03-23T04:12:43;101030.56;;;4.81;100.00
84308;BME280;74486;52.070;5.128;2024-03-23T04:15:09;101028.56;;;4.77;100.00
84308;BME280;74486;52.070;5.128;2024-03-23T04:17:35;101022.28;;;4.73;100.00
84308;BME280;74486;52.070;5.128;2024-03-23T04:20:01;101023.06;;;4.72;100.00
84308;BME280;74486;52.070;5.128;2024-03-23T04:22:28;101021.34;;;4.85;100.00
84308;BME280;74486;52.070;5.128;2024-03-23T04:24:54;101024.50;;;4.80;100.00
84308;BME280;74486;52.070;5.128;2024-03-23T04:27:19;101024.50;;;4.92;100.00
84308;BME280;74486;52.070;5.128;2024-03-23T04:29:47;101013.44;;;4.95;100.00
84308;BME280;74486;52.070;5.128;2024-03-23T04:32:12;101020.28;;;5.06;100.00
84308;BME280;74486;52.070;5.128;2024-03-23T04:34:37;101026.38;;;5.06;100.00
84308;BME280;74486;52.070;5.128;2024-03-23T04:37:03;101023.59;;;5.03;100.00
84308;BME280;74486;52.070;5.128;2024-03-23T04:39:30;101019.75;;;4.98;100.00
84308;BME280;74486;52.070;5.128;2024-03-23T04:41:56;101024.69;;;4.95;100.00
84308;BME280;74486;52.070;5.128;2024-03-23T04:44:21;101017.63;;;4.93;100.00
84308;BME280;74486;52.070;5.128;2024-03-23T04:46:46;101025.41;;;4.93;100.00
84308;BME280;74486;52.070;5.128;2024-03-23T04:49:12;101021.00;;;4.92;100.00
84308;BME280;74486;52.070;5.128;2024-03-23T04:51:37;101012.31;;;5.03;100.00
84308;BME280;74486;52.070;5.128;2024-03-23T04:54:03;101020.75;;;5.00;100.00
84308;BME280;74486;52.070;5.128;2024-03-23T04:56:29;101008.59;;;4.99;100.00
84308;BME280;74486;52.070;5.128;2024-03-23T04:58:55;101014.91;;;5.03;100.00
84308;BME280;74486;52.070;5.128;2024-03-23T05:01:21;101014.13;;;4.92;100.00
84308;BME280;74486;52.070;5.128;2024-03-23T05:03:46;101015.56;;;5.00;100.00
84308;BME280;74486;52.070;5.128;2024-03-23T05:06:11;101012.53;;;4.94;100.00
84308;BME280;74486;52.070;5.128;2024-03-23T05:08:37;101017.38;;;4.90;100.00
84308;BME280;74486;52.070;5.128;2024-03-23T05:11:02;101010.31;;;4.87;100.00
84308;BME280;74486;52.070;5.128;2024-03-23T05:13:30;101011.53;;;4.80;100.00
84308;BME280;74486;52.070;5.128;2024-03-23T05:15:55;101020.91;;;4.78;100.00
84308;BME280;74486;52.070;5.128;2024-03-23T05:18:21;101018.09;;;4.75;100.00
84308;BME280;74486;52.070;5.128;2024-03-23T05:20:46;101022.94;;;4.71;100.00
84308;BME280;74486;52.070;5.128;2024-03-23T05:23:12;101026.09;;;4.67;100.00
84308;BME280;74486;52.070;5.128;2024-03-23T05:25:37;101025.97;;;4.65;100.00
84308;BME280;74486;52.070;5.128;2024-03-23T05:28:03;101032.03;;;4.66;100.00
84308;BME280;74486;52.070;5.128;2024-03-23T05:30:30;101026.53;;;4.61;100.00
84308;BME280;74486;52.070;5.128;2024-03-23T05:32:55;101034.53;;;4.64;100.00
84308;BME280;74486;52.070;5.128;2024-03-23T05:35:21;101033.28;;;4.71;100.00
84308;BME280;74486;52.070;5.128;2024-03-23T05:37:46;101026.19;;;4.80;100.00
84308;BME280;74486;52.070;5.128;2024-03-23T05:40:12;101024.50;;;4.92;100.00
84308;BME280;74486;52.070;5.128;2024-03-23T05:42:37;101025.59;;;4.96;100.00
84308;BME280;74486;52.070;5.128;2024-03-23T05:45:03;101020.63;;;4.99;100.00
84308;BME280;74486;52.070;5.128;2024-03-23T05:47:30;101010.38;;;5.00;100.00
84308;BME280;74486;52.070;5.128;2024-03-23T05:49:56;101013.75;;;4.99;100.00
84308;BME280;74486;52.070;5.128;2024-03-23T05:52:21;101015.56;;;5.00;100.00
84308;BME280;74486;52.070;5.128;2024-03-23T05:54:47;101012.53;;;5.06;100.00
84308;BME280;74486;52.070;5.128;2024-03-23T05:57:12;101011.75;;;5.07;100.00
84308;BME280;74486;52.070;5.128;2024-03-23T05:59:37;101018.50;;;5.05;100.00
84308;BME280;74486;52.070;5.128;2024-03-23T06:02:03;101027.53;;;4.98;100.00
84308;BME280;74486;52.070;5.128;2024-03-23T06:04:30;101020.63;;;4.99;100.00
84308;BME280;74486;52.070;5.128;2024-03-23T06:06:55;101024.69;;;4.95;100.00
84308;BME280;74486;52.070;5.128;2024-03-23T06:09:20;101021.78;;;5.02;100.00
84308;BME280;74486;52.070;5.128;2024-03-23T06:11:46;101023.00;;;5.07;100.00
84308;BME280;74486;52.070;5.128;2024-03-23T06:14:11;101021.84;;;5.15;100.00
84308;BME280;74486;52.070;5.128;2024-03-23T06:16:37;101024.41;;;5.27;100.00
84308;BME280;74486;52.070;5.128;2024-03-23T06:19:03;101023.94;;;5.33;100.00
84308;BME280;74486;52.070;5.128;2024-03-23T06:21:30;101024.94;;;5.35;100.00
84308;BME280;74486;52.070;5.128;2024-03-23T06:23:55;101020.53;;;5.34;100.00
84308;BME280;74486;52.070;5.128;2024-03-23T06:26:21;101022.94;;;5.31;100.00
84308;BME280;74486;52.070;5.128;2024-03-23T06:28:46;101017.16;;;5.35;100.00
84308;BME280;74486;52.070;5.128;2024-03-23T06:31:12;101013.69;;;5.34;100.00
84308;BME280;74486;52.070;5.128;2024-03-23T06:33:38;101019.50;;;5.43;100.00
84308;BME280;74486;52.070;5.128;2024-03-23T06:36:04;101009.44;;;5.48;100.00
84308;BME280;74486;52.070;5.128;2024-03-23T06:38:31;101013.19;;;5.51;100.00
84308;BME280;74486;52.070;5.128;2024-03-23T06:40:57;101010.16;;;5.45;100.00
84308;BME280;74486;52.070;5.128;2024-03-23T06:43:22;101008.63;;;5.60;100.00
84308;BME280;74486;52.070;5.128;2024-03-23T06:45:52;101010.50;;;5.63;100.00
84308;BME280;74486;52.070;5.128;2024-03-23T06:48:17;101011.84;;;5.69;100.00
84308;BME280;74486;52.070;5.128;2024-03-23T06:50:43;101010.84;;;5.67;100.00
84308;BME280;74486;52.070;5.128;2024-03-23T06:53:08;101011.16;;;5.72;100.00
84308;BME280;74486;52.070;5.128;2024-03-23T06:55:35;101008.78;;;5.75;100.00
84308;BME280;74486;52.070;5.128;2024-03-23T06:58:00;101020.38;;;5.80;100.00
84308;BME280;74486;52.070;5.128;2024-03-23T07:00:26;101020.25;;;5.90;100.00
84308;BME280;74486;52.070;5.128;2024-03-23T07:02:51;101015.97;;;6.04;100.00
84308;BME280;74486;52.070;5.128;2024-03-23T07:05:17;101012.38;;;6.15;99.17
84308;BME280;74486;52.070;5.128;2024-03-23T07:07:42;101014.53;;;6.34;97.70
84308;BME280;74486;52.070;5.128;2024-03-23T07:10:08;101013.56;;;6.58;96.89
84308;BME280;74486;52.070;5.128;2024-03-23T07:12:35;101010.34;;;6.62;96.30
84308;BME280;74486;52.070;5.128;2024-03-23T07:15:00;101011.44;;;6.92;95.34
84308;BME280;74486;52.070;5.128;2024-03-23T07:17:26;101016.09;;;7.11;92.85
84308;BME280;74486;52.070;5.128;2024-03-23T07:19:51;101016.22;;;7.40;91.03
84308;BME280;74486;52.070;5.128;2024-03-23T07:22:16;101020.56;;;7.54;88.61
84308;BME280;74486;52.070;5.128;2024-03-23T07:24:42;101013.75;;;7.56;89.87
84308;BME280;74486;52.070;5.128;2024-03-23T07:27:07;101014.91;;;7.74;88.89
84308;BME280;74486;52.070;5.128;2024-03-23T07:29:34;101012.28;;;7.89;87.80
84308;BME280;74486;52.070;5.128;2024-03-23T07:31:59;101023.44;;;7.86;86.65
84308;BME280;74486;52.070;5.128;2024-03-23T07:34:25;101015.16;;;7.79;85.34
84308;BME280;74486;52.070;5.128;2024-03-23T07:36:50;101017.06;;;7.96;85.77
84308;BME280;74486;52.070;5.128;2024-03-23T07:39:16;101026.97;;;8.02;82.86
84308;BME280;74486;52.070;5.128;2024-03-23T07:41:44;101012.09;;;8.43;82.63
84308;BME280;74486;52.070;5.128;2024-03-23T07:44:09;101010.97;;;8.10;82.81
84308;BME280;74486;52.070;5.128;2024-03-23T07:46:37;101011.22;;;7.85;84.40
84308;BME280;74486;52.070;5.128;2024-03-23T07:49:04;101016.19;;;8.10;83.11
84308;BME280;74486;52.070;5.128;2024-03-23T07:51:29;101008.66;;;8.15;81.78
84308;BME280;74486;52.070;5.128;2024-03-23T07:53:55;101003.22;;;7.82;82.82
84308;BME280;74486;52.070;5.128;2024-03-23T07:56:20;101013.41;;;7.50;83.42
84308;BME280;74486;52.070;5.128;2024-03-23T07:58:46;101000.56;;;7.53;83.53
84308;BME280;74486;52.070;5.128;2024-03-23T08:01:12;101010.25;;;7.98;83.40
84308;BME280;74486;52.070;5.128;2024-03-23T08:03:40;101009.38;;;8.12;83.49
84308;BME280;74486;52.070;5.128;2024-03-23T08:06:07;101009.59;;;8.45;82.01
84308;BME280;74486;52.070;5.128;2024-03-23T08:08:32;101007.50;;;8.54;82.13
84308;BME280;74486;52.070;5.128;2024-03-23T08:10:58;101009.38;;;9.02;78.35
84308;BME280;74486;52.070;5.128;2024-03-23T08:13:23;101000.53;;;8.84;78.56
84308;BME280;74486;52.070;5.128;2024-03-23T08:15:49;100992.13;;;9.20;76.15
84308;BME280;74486;52.070;5.128;2024-03-23T08:18:14;100992.97;;;9.51;74.35
84308;BME280;74486;52.070;5.128;2024-03-23T08:20:41;100993.03;;;9.04;75.95
84308;BME280;74486;52.070;5.128;2024-03-23T08:23:07;100989.19;;;8.38;77.93
84308;BME280;74486;52.070;5.128;2024-03-23T08:25:33;101002.72;;;8.03;79.05
84308;BME280;74486;52.070;5.128;2024-03-23T08:27:59;100993.47;;;8.97;77.04
84308;BME280;74486;52.070;5.128;2024-03-23T08:30:24;101001.38;;;9.62;73.14
84308;BME280;74486;52.070;5.128;2024-03-23T08:32:50;101002.28;;;9.63;72.57
84308;BME280;74486;52.070;5.128;2024-03-23T08:35:15;100997.53;;;9.39;74.53
84308;BME280;74486;52.070;5.128;2024-03-23T08:37:42;101001.25;;;10.09;72.77
84308;BME280;74486;52.070;5.128;2024-03-23T08:40:08;100995.84;;;10.22;68.92
84308;BME280;74486;52.070;5.128;2024-03-23T08:42:34;101009.53;;;9.84;70.88
84308;BME280;74486;52.070;5.128;2024-03-23T08:44:59;101000.38;;;9.28;71.30
84308;BME280;74486;52.070;5.128;2024-03-23T08:47:25;101004.50;;;8.77;72.77
84308;BME280;74486;52.070;5.128;2024-03-23T08:49:50;101002.38;;;8.70;73.37
84308;BME280;74486;52.070;5.128;2024-03-23T08:52:16;100999.25;;;8.46;74.22
84308;BME280;74486;52.070;5.128;2024-03-23T08:54:43;101001.56;;;8.12;75.29
84308;BME280;74486;52.070;5.128;2024-03-23T08:57:08;101001.38;;;8.09;76.10
84308;BME280;74486;52.070;5.128;2024-03-23T08:59:34;100996.03;;;8.81;73.39
84308;BME280;74486;52.070;5.128;2024-03-23T09:02:00;100993.69;;;9.49;71.35
84308;BME280;74486;52.070;5.128;2024-03-23T09:04:25;100992.31;;;9.39;69.44
84308;BME280;74486;52.070;5.128;2024-03-23T09:06:51;100995.41;;;8.85;70.59
84308;BME280;74486;52.070;5.128;2024-03-23T09:09:16;100990.81;;;8.50;73.86
84308;BME280;74486;52.070;5.128;2024-03-23T09:11:43;101000.47;;;8.09;79.09
84308;BME280;74486;52.070;5.128;2024-03-23T09:14:08;100998.63;;;8.36;78.41
84308;BME280;74486;52.070;5.128;2024-03-23T09:16:34;100999.03;;;8.28;76.67
84308;BME280;74486;52.070;5.128;2024-03-23T09:18:59;100996.22;;;7.81;77.67
84308;BME280;74486;52.070;5.128;2024-03-23T09:21:25;100994.78;;;8.89;72.96
84308;BME280;74486;52.070;5.128;2024-03-23T09:23:50;100988.97;;;9.90;69.73
84308;BME280;74486;52.070;5.128;2024-03-23T09:26:16;100983.50;;;10.89;65.56
84308;BME280;74486;52.070;5.128;2024-03-23T09:28:43;100993.84;;;9.84;69.04
84308;BME280;74486;52.070;5.128;2024-03-23T09:31:08;100999.41;;;9.74;68.11
84308;BME280;74486;52.070;5.128;2024-03-23T09:33:34;100984.63;;;10.59;65.38
84308;BME280;74486;52.070;5.128;2024-03-23T09:36:03;100975.38;;;11.20;62.36
84308;BME280;74486;52.070;5.128;2024-03-23T09:38:28;100979.81;;;11.59;60.57
84308;BME280;74486;52.070;5.128;2024-03-23T09:40:54;100962.06;;;12.11;59.59
84308;BME280;74486;52.070;5.128;2024-03-23T09:43:19;100990.38;;;11.24;59.99
84308;BME280;74486;52.070;5.128;2024-03-23T09:45:46;100993.03;;;9.85;66.05
84308;BME280;74486;52.070;5.128;2024-03-23T09:48:12;100979.25;;;10.56;64.32
84308;BME280;74486;52.070;5.128;2024-03-23T09:50:38;100979.91;;;10.87;60.92
84308;BME280;74486;52.070;5.128;2024-03-23T09:53:04;100978.25;;;11.07;62.07
84308;BME280;74486;52.070;5.128;2024-03-23T09:55:29;100968.13;;;11.51;57.95
84308;BME280;74486;52.070;5.128;2024-03-23T09:57:55;100978.94;;;11.03;58.41
84308;BME280;74486;52.070;5.128;2024-03-23T10:00:20;100977.31;;;11.43;56.80
84308;BME280;74486;52.070;5.128;2024-03-23T10:02:47;100965.94;;;11.23;57.85
84308;BME280;74486;52.070;5.128;2024-03-23T10:05:20;100975.75;;;10.55;60.73
84308;BME280;74486;52.070;5.128;2024-03-23T10:07:46;100969.75;;;11.88;58.02
84308;BME280;74486;52.070;5.128;2024-03-23T10:10:11;100964.19;;;12.61;56.64
84308;BME280;74486;52.070;5.128;2024-03-23T10:12:44;100962.56;;;13.30;53.34
84308;BME280;74486;52.070;5.128;2024-03-23T10:15:15;100978.03;;;11.77;54.81
84308;BME280;74486;52.070;5.128;2024-03-23T10:17:43;100959.81;;;12.62;54.90
84308;BME280;74486;52.070;5.128;2024-03-23T10:20:10;100964.06;;;13.47;50.93
84308;BME280;74486;52.070;5.128;2024-03-23T10:22:37;100965.06;;;12.83;50.46
84308;BME280;74486;52.070;5.128;2024-03-23T10:25:07;100945.31;;;12.08;52.43
84308;BME280;74486;52.070;5.128;2024-03-23T10:27:33;100964.34;;;11.08;53.75
84308;BME280;74486;52.070;5.128;2024-03-23T10:30:07;100974.53;;;10.15;58.14
84308;BME280;74486;52.070;5.128;2024-03-23T10:32:33;101042.16;;;9.13;71.72
84308;BME280;74486;52.070;5.128;2024-03-23T10:35:15;101032.13;;;6.64;82.62
84308;BME280;74486;52.070;5.128;2024-03-23T10:37:41;101025.97;;;6.11;90.81
84308;BME280;74486;52.070;5.128;2024-03-23T10:40:10;101017.25;;;6.48;91.10
84308;BME280;74486;52.070;5.128;2024-03-23T10:42:37;101002.59;;;7.03;90.13
84308;BME280;74486;52.070;5.128;2024-03-23T10:45:04;100991.50;;;8.93;85.69
84308;BME280;74486;52.070;5.128;2024-03-23T10:47:29;100992.53;;;9.11;78.12
84308;BME280;74486;52.070;5.128;2024-03-23T10:49:55;100969.94;;;9.93;78.59
84308;BME280;74486;52.070;5.128;2024-03-23T10:52:22;100986.34;;;8.79;80.12
84308;BME280;74486;52.070;5.128;2024-03-23T10:54:48;100984.94;;;8.25;83.60
84308;BME280;74486;52.070;5.128;2024-03-23T10:57:17;100993.09;;;7.87;85.57
84308;BME280;74486;52.070;5.128;2024-03-23T10:59:45;100982.53;;;7.99;87.68
84308;BME280;74486;52.070;5.128;2024-03-23T11:02:18;100976.00;;;9.59;81.08
84308;BME280;74486;52.070;5.128;2024-03-23T11:04:44;100970.75;;;10.60;73.18
84308;BME280;74486;52.070;5.128;2024-03-23T11:07:32;100967.69;;;11.05;70.46
84308;BME280;74486;52.070;5.128;2024-03-23T11:09:58;100970.66;;;11.50;67.96
84308;BME280;74486;52.070;5.128;2024-03-23T11:12:26;100966.53;;;10.28;69.28
84308;BME280;74486;52.070;5.128;2024-03-23T11:14:52;100963.09;;;10.29;69.48
84308;BME280;74486;52.070;5.128;2024-03-23T11:17:19;100958.53;;;11.52;64.96
84308;BME280;74486;52.070;5.128;2024-03-23T11:19:52;100971.19;;;11.43;64.09
84308;BME280;74486;52.070;5.128;2024-03-23T11:22:39;100968.06;;;10.58;63.73
84308;BME280;74486;52.070;5.128;2024-03-23T11:25:12;100968.28;;;10.45;65.04
84308;BME280;74486;52.070;5.128;2024-03-23T11:27:38;100972.63;;;9.94;66.82
84308;BME280;74486;52.070;5.128;2024-03-23T11:30:12;100963.59;;;12.06;59.71
84308;BME280;74486;52.070;5.128;2024-03-23T11:32:37;100957.28;;;12.43;58.04
84308;BME280;74486;52.070;5.128;2024-03-23T11:35:03;100956.38;;;11.82;60.39
84308;BME280;74486;52.070;5.128;2024-03-23T11:37:28;100966.94;;;10.53;62.19
84308;BME280;74486;52.070;5.128;2024-03-23T11:39:55;100968.22;;;9.93;64.13
84308;BME280;74486;52.070;5.128;2024-03-23T11:42:21;100975.53;;;9.50;68.78
84308;BME280;74486;52.070;5.128;2024-03-23T11:44:46;100960.13;;;9.23;67.33
84308;BME280;74486;52.070;5.128;2024-03-23T11:47:12;100966.97;;;9.53;68.28
84308;BME280;74486;52.070;5.128;2024-03-23T11:49:37;100951.69;;;11.17;61.58
84308;BME280;74486;52.070;5.128;2024-03-23T11:52:03;100954.59;;;10.86;63.26
84308;BME280;74486;52.070;5.128;2024-03-23T11:54:29;100938.84;;;12.20;57.95
84308;BME280;74486;52.070;5.128;2024-03-23T11:56:57;100941.59;;;13.56;54.10
84308;BME280;74486;52.070;5.128;2024-03-23T11:59:35;100945.56;;;13.21;51.75
84308;BME280;74486;52.070;5.128;2024-03-23T12:02:06;100929.16;;;11.59;56.88
84308;BME280;74486;52.070;5.128;2024-03-23T12:04:31;100940.63;;;10.68;61.75
84308;BME280;74486;52.070;5.128;2024-03-23T12:07:10;100939.59;;;10.13;62.48
84308;BME280;74486;52.070;5.128;2024-03-23T12:09:36;100943.25;;;9.98;65.22
84308;BME280;74486;52.070;5.128;2024-03-23T12:12:08;100956.94;;;9.60;61.72
84308;BME280;74486;52.070;5.128;2024-03-23T12:14:33;100946.94;;;10.36;58.92
84308;BME280;74486;52.070;5.128;2024-03-23T12:17:07;100913.28;;;12.36;53.25
84308;BME280;74486;52.070;5.128;2024-03-23T12:19:33;100922.28;;;11.80;52.43
84308;BME280;74486;52.070;5.128;2024-03-23T12:21:58;100927.78;;;10.37;58.19
84308;BME280;74486;52.070;5.128;2024-03-23T12:24:24;100922.38;;;10.87;58.82
84308;BME280;74486;52.070;5.128;2024-03-23T12:26:49;100917.97;;;11.23;56.64
84308;BME280;74486;52.070;5.128;2024-03-23T12:29:16;100920.53;;;10.67;57.61
84308;BME280;74486;52.070;5.128;2024-03-23T12:31:41;100921.22;;;10.63;59.81
84308;BME280;74486;52.070;5.128;2024-03-23T12:34:07;100917.06;;;12.01;54.77
84308;BME280;74486;52.070;5.128;2024-03-23T12:36:32;100916.41;;;11.09;61.18
84308;BME280;74486;52.070;5.128;2024-03-23T12:38:58;100912.34;;;9.90;62.54
84308;BME280;74486;52.070;5.128;2024-03-23T12:41:23;100914.00;;;10.39;61.78
84308;BME280;74486;52.070;5.128;2024-03-23T12:43:49;100901.59;;;12.28;58.16
84308;BME280;74486;52.070;5.128;2024-03-23T12:46:15;100893.34;;;13.52;54.06
84308;BME280;74486;52.070;5.128;2024-03-23T12:48:41;100893.03;;;15.01;49.76
84308;BME280;74486;52.070;5.128;2024-03-23T12:51:09;100879.81;;;15.57;47.73
84308;BME280;74486;52.070;5.128;2024-03-23T12:53:34;100894.63;;;14.39;45.83
84308;BME280;74486;52.070;5.128;2024-03-23T12:56:00;100910.53;;;12.98;49.36
84308;BME280;74486;52.070;5.128;2024-03-23T12:58:25;100908.13;;;12.37;51.61
84308;BME280;74486;52.070;5.128;2024-03-23T13:00:51;100906.19;;;11.13;53.15
84308;BME280;74486;52.070;5.128;2024-03-23T13:03:18;100950.13;;;10.30;57.02
84308;BME280;74486;52.070;5.128;2024-03-23T13:05:43;100943.81;;;9.27;64.51
84308;BME280;74486;52.070;5.128;2024-03-23T13:08:08;100961.34;;;7.93;78.71
84308;BME280;74486;52.070;5.128;2024-03-23T13:10:34;100959.53;;;7.07;80.54
84308;BME280;74486;52.070;5.128;2024-03-23T13:12:59;100958.47;;;7.31;84.86
84308;BME280;74486;52.070;5.128;2024-03-23T13:15:25;100943.78;;;9.75;74.89
84308;BME280;74486;52.070;5.128;2024-03-23T13:17:50;100941.41;;;11.02;68.83
84308;BME280;74486;52.070;5.128;2024-03-23T13:20:17;100928.13;;;10.80;72.81
84308;BME280;74486;52.070;5.128;2024-03-23T13:22:42;100932.00;;;9.83;72.18
84308;BME280;74486;52.070;5.128;2024-03-23T13:25:08;100920.94;;;10.74;70.25
84308;BME280;74486;52.070;5.128;2024-03-23T13:27:33;100912.53;;;10.81;65.08
84308;BME280;74486;52.070;5.128;2024-03-23T13:29:59;100924.34;;;9.86;69.00
84308;BME280;74486;52.070;5.128;2024-03-23T13:32:24;100927.72;;;8.87;69.49
84308;BME280;74486;52.070;5.128;2024-03-23T13:34:50;100917.88;;;8.50;73.11
84308;BME280;74486;52.070;5.128;2024-03-23T13:37:16;100921.94;;;8.16;71.38
84308;BME280;74486;52.070;5.128;2024-03-23T13:39:42;100923.63;;;8.01;75.18